Garnet Lake, New York
Current Conditions -  °F | °C
As of 2:53 AM on Sunday 26 Oct 2014 (Local Time) from KGFL Reporting Station
Few Clouds Few Clouds  
Wind Chill: 50°   Ceiling: Unl
Heat Index: 50°   Visibility: 8mi
Dew Point: 46°   Wind: 5mph
Humidity: 86%   Direction: 200°SSW
Pressure: 29.47"   Gusts: NA
Location:  43.5954°N, 74.0781°W
Report Text: KGFL 260653Z AUTO 20004KT 8SM FEW060 10/08 A2947 RMK AO2 SLP982 T01000078
Loading
Personal Weather Stations






























Interactive Weather Map
Tropical Storm Tracking
New forecast layout! Learn more

10-Day Weather Forecast

Advertisements
Track Severe Weather on mobile